sensor_id;sensor_type;location;lat;lon;timestamp;temperature;humidity
57843;DHT22;43673;51.058;3.734;2023-03-03T00:01:04;4.10;99.90
57843;DHT22;43673;51.058;3.734;2023-03-03T00:03:30;4.00;99.90
57843;DHT22;43673;51.058;3.734;2023-03-03T00:05:59;4.00;99.90
57843;DHT22;43673;51.058;3.734;2023-03-03T00:08:26;4.00;99.90
57843;DHT22;43673;51.058;3.734;2023-03-03T00:10:52;4.00;99.90
57843;DHT22;43673;51.058;3.734;2023-03-03T00:13:24;4.00;99.90
57843;DHT22;43673;51.058;3.734;2023-03-03T00:15:52;3.90;99.90
57843;DHT22;43673;51.058;3.734;2023-03-03T00:18:34;3.90;99.90
57843;DHT22;43673;51.058;3.734;2023-03-03T00:21:01;3.90;99.90
57843;DHT22;43673;51.058;3.734;2023-03-03T00:23:38;3.90;99.90
57843;DHT22;43673;51.058;3.734;2023-03-03T00:26:20;4.00;99.90
57843;DHT22;43673;51.058;3.734;2023-03-03T00:28:51;3.90;99.90
57843;DHT22;43673;51.058;3.734;2023-03-03T00:31:29;3.90;99.90
57843;DHT22;43673;51.058;3.734;2023-03-03T00:34:01;3.80;99.90
57843;DHT22;43673;51.058;3.734;2023-03-03T00:36:38;3.80;99.90
57843;DHT22;43673;51.058;3.734;2023-03-03T00:41:43;3.80;99.90
57843;DHT22;43673;51.058;3.734;2023-03-03T00:44:47;3.80;99.90
57843;DHT22;43673;51.058;3.734;2023-03-03T00:52:35;3.70;99.90
57843;DHT22;43673;51.058;3.734;2023-03-03T00:55:02;3.80;99.90
57843;DHT22;43673;51.058;3.734;2023-03-03T00:57:28;3.70;99.90
57843;DHT22;43673;51.058;3.734;2023-03-03T00:59:54;3.70;99.90
57843;DHT22;43673;51.058;3.734;2023-03-03T01:02:20;3.70;99.90
57843;DHT22;43673;51.058;3.734;2023-03-03T01:04:49;3.70;99.90
57843;DHT22;43673;51.058;3.734;2023-03-03T01:07:16;3.70;99.90
57843;DHT22;43673;51.058;3.734;2023-03-03T01:09:42;3.70;99.90
57843;DHT22;43673;51.058;3.734;2023-03-03T01:12:08;3.70;99.90
57843;DHT22;43673;51.058;3.734;2023-03-03T01:14:34;3.60;99.90
57843;DHT22;43673;51.058;3.734;2023-03-03T01:16:59;3.60;99.90
57843;DHT22;43673;51.058;3.734;2023-03-03T01:19:25;3.70;99.90
57843;DHT22;43673;51.058;3.734;2023-03-03T01:21:51;3.70;99.90
57843;DHT22;43673;51.058;3.734;2023-03-03T01:24:17;3.70;99.90
57843;DHT22;43673;51.058;3.734;2023-03-03T01:26:42;3.70;99.90
57843;DHT22;43673;51.058;3.734;2023-03-03T01:29:08;3.70;99.90
57843;DHT22;43673;51.058;3.734;2023-03-03T01:31:34;3.80;99.90
57843;DHT22;43673;51.058;3.734;2023-03-03T01:34:00;3.70;99.90
57843;DHT22;43673;51.058;3.734;2023-03-03T01:36:27;3.90;99.90
57843;DHT22;43673;51.058;3.734;2023-03-03T01:38:53;3.70;99.90
57843;DHT22;43673;51.058;3.734;2023-03-03T01:41:19;3.70;99.90
57843;DHT22;43673;51.058;3.734;2023-03-03T01:43:47;3.70;99.90
57843;DHT22;43673;51.058;3.734;2023-03-03T01:46:30;3.70;99.90
57843;DHT22;43673;51.058;3.734;2023-03-03T01:49:02;3.60;99.90
57843;DHT22;43673;51.058;3.734;2023-03-03T01:51:38;3.60;99.90
57843;DHT22;43673;51.058;3.734;2023-03-03T01:54:14;3.70;99.90
57843;DHT22;43673;51.058;3.734;2023-03-03T01:56:41;3.60;99.90
57843;DHT22;43673;51.058;3.734;2023-03-03T01:59:12;3.60;99.90
57843;DHT22;43673;51.058;3.734;2023-03-03T02:01:39;3.60;99.90
57843;DHT22;43673;51.058;3.734;2023-03-03T02:04:06;3.60;99.90
57843;DHT22;43673;51.058;3.734;2023-03-03T02:06:39;3.60;99.90
57843;DHT22;43673;51.058;3.734;2023-03-03T02:11:59;3.50;99.90
57843;DHT22;43673;51.058;3.734;2023-03-03T02:14:26;3.50;99.90
57843;DHT22;43673;51.058;3.734;2023-03-03T02:16:52;3.60;99.90
57843;DHT22;43673;51.058;3.734;2023-03-03T02:19:32;3.60;99.90
57843;DHT22;43673;51.058;3.734;2023-03-03T02:22:00;3.60;99.90
57843;DHT22;43673;51.058;3.734;2023-03-03T02:24:55;3.60;99.90
57843;DHT22;43673;51.058;3.734;2023-03-03T02:27:23;3.60;99.90
57843;DHT22;43673;51.058;3.734;2023-03-03T02:29:49;3.50;99.90
57843;DHT22;43673;51.058;3.734;2023-03-03T02:32:16;3.50;99.90
57843;DHT22;43673;51.058;3.734;2023-03-03T02:34:47;3.50;99.90
57843;DHT22;43673;51.058;3.734;2023-03-03T02:37:13;3.40;99.90
57843;DHT22;43673;51.058;3.734;2023-03-03T02:39:40;3.50;99.90
57843;DHT22;43673;51.058;3.734;2023-03-03T02:44:39;3.50;99.90
57843;DHT22;43673;51.058;3.734;2023-03-03T02:47:05;3.50;99.90
57843;DHT22;43673;51.058;3.734;2023-03-03T02:49:33;3.50;99.90
57843;DHT22;43673;51.058;3.734;2023-03-03T02:52:02;3.50;99.90
57843;DHT22;43673;51.058;3.734;2023-03-03T02:54:29;3.50;99.90
57843;DHT22;43673;51.058;3.734;2023-03-03T02:56:58;3.50;99.90
57843;DHT22;43673;51.058;3.734;2023-03-03T02:59:24;3.50;99.90
57843;DHT22;43673;51.058;3.734;2023-03-03T03:01:51;3.50;99.90
57843;DHT22;43673;51.058;3.734;2023-03-03T03:04:22;3.50;99.90
57843;DHT22;43673;51.058;3.734;2023-03-03T03:06:48;3.70;99.90
57843;DHT22;43673;51.058;3.734;2023-03-03T03:09:16;3.50;99.90
57843;DHT22;43673;51.058;3.734;2023-03-03T03:11:42;3.60;99.90
57843;DHT22;43673;51.058;3.734;2023-03-03T03:14:10;3.50;99.90
57843;DHT22;43673;51.058;3.734;2023-03-03T03:16:36;3.50;99.90
57843;DHT22;43673;51.058;3.734;2023-03-03T03:19:03;3.50;99.90
57843;DHT22;43673;51.058;3.734;2023-03-03T03:21:30;3.60;99.90
57843;DHT22;43673;51.058;3.734;2023-03-03T03:23:57;3.70;99.90
57843;DHT22;43673;51.058;3.734;2023-03-03T03:26:22;3.50;99.90
57843;DHT22;43673;51.058;3.734;2023-03-03T03:28:49;3.50;99.90
57843;DHT22;43673;51.058;3.734;2023-03-03T03:31:16;3.50;99.90
57843;DHT22;43673;51.058;3.734;2023-03-03T03:33:43;3.50;99.90
57843;DHT22;43673;51.058;3.734;2023-03-03T03:36:09;3.50;99.90
57843;DHT22;43673;51.058;3.734;2023-03-03T03:38:36;3.50;99.90
57843;DHT22;43673;51.058;3.734;2023-03-03T03:41:03;3.60;99.90
57843;DHT22;43673;51.058;3.734;2023-03-03T03:43:31;3.50;99.90
57843;DHT22;43673;51.058;3.734;2023-03-03T03:45:57;3.60;99.90
57843;DHT22;43673;51.058;3.734;2023-03-03T03:48:23;3.60;99.90
57843;DHT22;43673;51.058;3.734;2023-03-03T03:50:49;3.60;99.90
57843;DHT22;43673;51.058;3.734;2023-03-03T03:53:16;3.60;99.90
57843;DHT22;43673;51.058;3.734;2023-03-03T03:55:42;3.60;99.90
57843;DHT22;43673;51.058;3.734;2023-03-03T03:58:12;3.60;99.90
57843;DHT22;43673;51.058;3.734;2023-03-03T04:00:40;3.70;99.90
57843;DHT22;43673;51.058;3.734;2023-03-03T04:03:06;3.70;99.90
57843;DHT22;43673;51.058;3.734;2023-03-03T04:05:32;3.70;99.90
57843;DHT22;43673;51.058;3.734;2023-03-03T04:07:57;3.70;99.90
57843;DHT22;43673;51.058;3.734;2023-03-03T04:10:23;3.70;99.90
57843;DHT22;43673;51.058;3.734;2023-03-03T04:12:49;3.70;99.90
57843;DHT22;43673;51.058;3.734;2023-03-03T04:15:15;3.70;99.90
57843;DHT22;43673;51.058;3.734;2023-03-03T04:17:40;3.90;99.90
57843;DHT22;43673;51.058;3.734;2023-03-03T04:20:07;3.70;99.90
57843;DHT22;43673;51.058;3.734;2023-03-03T04:22:33;3.70;99.90
57843;DHT22;43673;51.058;3.734;2023-03-03T04:25:01;3.80;99.90
57843;DHT22;43673;51.058;3.734;2023-03-03T04:27:34;3.80;99.90
57843;DHT22;43673;51.058;3.734;2023-03-03T04:30:00;3.80;99.90
57843;DHT22;43673;51.058;3.734;2023-03-03T04:32:25;3.80;99.90
57843;DHT22;43673;51.058;3.734;2023-03-03T04:34:52;3.80;99.90
57843;DHT22;43673;51.058;3.734;2023-03-03T04:37:17;3.80;99.90
57843;DHT22;43673;51.058;3.734;2023-03-03T04:39:43;3.70;99.90
57843;DHT22;43673;51.058;3.734;2023-03-03T04:42:09;3.70;99.90
57843;DHT22;43673;51.058;3.734;2023-03-03T04:44:34;3.70;99.90
57843;DHT22;43673;51.058;3.734;2023-03-03T04:47:00;3.70;99.90
57843;DHT22;43673;51.058;3.734;2023-03-03T04:49:26;3.70;99.90
57843;DHT22;43673;51.058;3.734;2023-03-03T04:51:51;3.80;99.90
57843;DHT22;43673;51.058;3.734;2023-03-03T04:54:17;3.80;99.90
57843;DHT22;43673;51.058;3.734;2023-03-03T04:56:43;3.80;99.90
57843;DHT22;43673;51.058;3.734;2023-03-03T04:59:08;3.80;99.90
57843;DHT22;43673;51.058;3.734;2023-03-03T05:01:34;4.00;99.90
57843;DHT22;43673;51.058;3.734;2023-03-03T05:04:00;3.90;99.90
57843;DHT22;43673;51.058;3.734;2023-03-03T05:06:25;3.80;99.90
57843;DHT22;43673;51.058;3.734;2023-03-03T05:08:51;3.90;99.90
57843;DHT22;43673;51.058;3.734;2023-03-03T05:11:17;3.90;99.90
57843;DHT22;43673;51.058;3.734;2023-03-03T05:13:42;3.90;99.90
57843;DHT22;43673;51.058;3.734;2023-03-03T05:16:08;3.90;99.90
57843;DHT22;43673;51.058;3.734;2023-03-03T05:18:34;4.00;99.90
57843;DHT22;43673;51.058;3.734;2023-03-03T05:21:00;3.90;99.90
57843;DHT22;43673;51.058;3.734;2023-03-03T05:23:26;4.00;99.90
57843;DHT22;43673;51.058;3.734;2023-03-03T05:25:51;3.80;99.90
57843;DHT22;43673;51.058;3.734;2023-03-03T05:28:17;3.80;99.90
57843;DHT22;43673;51.058;3.734;2023-03-03T05:30:43;3.80;99.90
57843;DHT22;43673;51.058;3.734;2023-03-03T05:33:13;3.70;99.90
57843;DHT22;43673;51.058;3.734;2023-03-03T05:35:39;3.70;99.90
57843;DHT22;43673;51.058;3.734;2023-03-03T05:38:05;3.70;99.90
57843;DHT22;43673;51.058;3.734;2023-03-03T05:40:30;3.60;99.90
57843;DHT22;43673;51.058;3.734;2023-03-03T05:42:56;3.60;99.90
57843;DHT22;43673;51.058;3.734;2023-03-03T05:45:22;3.60;99.90
57843;DHT22;43673;51.058;3.734;2023-03-03T05:47:52;3.50;99.90
57843;DHT22;43673;51.058;3.734;2023-03-03T05:50:19;3.50;99.90
57843;DHT22;43673;51.058;3.734;2023-03-03T05:52:49;3.40;99.90
57843;DHT22;43673;51.058;3.734;2023-03-03T05:55:15;3.50;99.90
57843;DHT22;43673;51.058;3.734;2023-03-03T05:57:41;3.20;99.90
57843;DHT22;43673;51.058;3.734;2023-03-03T06:00:07;3.20;99.90
57843;DHT22;43673;51.058;3.734;2023-03-03T06:02:33;3.20;99.90
57843;DHT22;43673;51.058;3.734;2023-03-03T06:04:59;3.10;99.90
57843;DHT22;43673;51.058;3.734;2023-03-03T06:07:25;3.20;99.90
57843;DHT22;43673;51.058;3.734;2023-03-03T06:09:51;3.20;99.90
57843;DHT22;43673;51.058;3.734;2023-03-03T06:12:17;3.30;99.90
57843;DHT22;43673;51.058;3.734;2023-03-03T06:14:42;3.60;99.90
57843;DHT22;43673;51.058;3.734;2023-03-03T06:17:08;3.40;99.90
57843;DHT22;43673;51.058;3.734;2023-03-03T06:19:35;3.30;99.90
57843;DHT22;43673;51.058;3.734;2023-03-03T06:22:01;3.30;99.90
57843;DHT22;43673;51.058;3.734;2023-03-03T06:24:27;3.40;99.90
57843;DHT22;43673;51.058;3.734;2023-03-03T06:26:56;3.10;99.90
57843;DHT22;43673;51.058;3.734;2023-03-03T06:29:21;3.10;99.90
57843;DHT22;43673;51.058;3.734;2023-03-03T06:31:47;3.00;99.90
57843;DHT22;43673;51.058;3.734;2023-03-03T06:34:13;3.00;99.90
57843;DHT22;43673;51.058;3.734;2023-03-03T06:36:39;3.00;99.90
57843;DHT22;43673;51.058;3.734;2023-03-03T06:39:04;3.10;99.90
57843;DHT22;43673;51.058;3.734;2023-03-03T06:41:30;2.70;99.90
57843;DHT22;43673;51.058;3.734;2023-03-03T06:43:56;2.60;99.90
57843;DHT22;43673;51.058;3.734;2023-03-03T06:46:22;2.50;99.90
57843;DHT22;43673;51.058;3.734;2023-03-03T06:48:48;2.60;99.90
57843;DHT22;43673;51.058;3.734;2023-03-03T06:51:34;2.60;99.90
57843;DHT22;43673;51.058;3.734;2023-03-03T06:54:14;2.50;99.90
57843;DHT22;43673;51.058;3.734;2023-03-03T06:56:41;2.50;99.90
57843;DHT22;43673;51.058;3.734;2023-03-03T06:59:19;2.40;99.90
57843;DHT22;43673;51.058;3.734;2023-03-03T07:01:47;2.40;99.90
57843;DHT22;43673;51.058;3.734;2023-03-03T07:06:44;2.60;99.90
57843;DHT22;43673;51.058;3.734;2023-03-03T07:09:22;2.70;99.90
57843;DHT22;43673;51.058;3.734;2023-03-03T07:11:50;2.70;99.90
57843;DHT22;43673;51.058;3.734;2023-03-03T07:14:18;2.90;99.90
57843;DHT22;43673;51.058;3.734;2023-03-03T07:16:44;2.80;99.90
57843;DHT22;43673;51.058;3.734;2023-03-03T07:19:34;2.80;99.90
57843;DHT22;43673;51.058;3.734;2023-03-03T07:22:16;2.90;99.90
57843;DHT22;43673;51.058;3.734;2023-03-03T07:24:44;2.90;99.90
57843;DHT22;43673;51.058;3.734;2023-03-03T07:29:46;2.70;99.90
57843;DHT22;43673;51.058;3.734;2023-03-03T07:32:45;2.60;99.90
57843;DHT22;43673;51.058;3.734;2023-03-03T07:35:38;2.70;99.90
57843;DHT22;43673;51.058;3.734;2023-03-03T07:38:28;2.70;99.90
57843;DHT22;43673;51.058;3.734;2023-03-03T07:40:57;2.80;99.90
57843;DHT22;43673;51.058;3.734;2023-03-03T07:46:24;3.00;99.90
57843;DHT22;43673;51.058;3.734;2023-03-03T07:48:52;2.90;99.90
57843;DHT22;43673;51.058;3.734;2023-03-03T07:54:14;2.80;99.90
57843;DHT22;43673;51.058;3.734;2023-03-03T07:56:40;2.90;99.90
57843;DHT22;43673;51.058;3.734;2023-03-03T07:59:22;2.90;99.90
57843;DHT22;43673;51.058;3.734;2023-03-03T08:01:54;3.00;99.90
57843;DHT22;43673;51.058;3.734;2023-03-03T08:09:34;3.10;99.90
57843;DHT22;43673;51.058;3.734;2023-03-03T08:14:37;3.00;99.90
57843;DHT22;43673;51.058;3.734;2023-03-03T08:17:20;2.90;99.90
57843;DHT22;43673;51.058;3.734;2023-03-03T08:19:48;3.00;99.90
57843;DHT22;43673;51.058;3.734;2023-03-03T08:22:18;3.00;99.90
57843;DHT22;43673;51.058;3.734;2023-03-03T08:24:44;3.10;99.90
57843;DHT22;43673;51.058;3.734;2023-03-03T08:27:10;3.30;99.90
57843;DHT22;43673;51.058;3.734;2023-03-03T08:29:36;3.30;99.90
57843;DHT22;43673;51.058;3.734;2023-03-03T08:32:01;3.40;99.90
57843;DHT22;43673;51.058;3.734;2023-03-03T08:34:27;3.30;99.90
57843;DHT22;43673;51.058;3.734;2023-03-03T08:36:53;3.50;99.90
57843;DHT22;43673;51.058;3.734;2023-03-03T08:39:21;3.70;99.90
57843;DHT22;43673;51.058;3.734;2023-03-03T08:41:46;3.80;99.90
57843;DHT22;43673;51.058;3.734;2023-03-03T08:44:12;3.90;99.90
57843;DHT22;43673;51.058;3.734;2023-03-03T08:46:38;4.00;99.90
57843;DHT22;43673;51.058;3.734;2023-03-03T08:49:04;4.30;99.90
57843;DHT22;43673;51.058;3.734;2023-03-03T08:51:29;4.10;99.90
57843;DHT22;43673;51.058;3.734;2023-03-03T08:53:55;4.10;99.90
57843;DHT22;43673;51.058;3.734;2023-03-03T08:56:21;4.10;99.90
57843;DHT22;43673;51.058;3.734;2023-03-03T08:58:46;4.20;99.90
57843;DHT22;43673;51.058;3.734;2023-03-03T09:01:13;4.10;99.90
57843;DHT22;43673;51.058;3.734;2023-03-03T09:03:42;4.10;99.90
57843;DHT22;43673;51.058;3.734;2023-03-03T09:06:09;4.30;99.90
57843;DHT22;43673;51.058;3.734;2023-03-03T09:08:35;4.30;99.90
57843;DHT22;43673;51.058;3.734;2023-03-03T09:11:00;4.30;99.90
57843;DHT22;43673;51.058;3.734;2023-03-03T09:13:28;4.20;99.90
57843;DHT22;43673;51.058;3.734;2023-03-03T09:15:57;4.20;99.90
57843;DHT22;43673;51.058;3.734;2023-03-03T09:20:55;4.20;99.90
57843;DHT22;43673;51.058;3.734;2023-03-03T09:23:36;4.30;99.90
57843;DHT22;43673;51.058;3.734;2023-03-03T09:28:31;4.30;99.90
57843;DHT22;43673;51.058;3.734;2023-03-03T09:31:01;4.20;99.90
57843;DHT22;43673;51.058;3.734;2023-03-03T09:33:39;4.40;99.90
57843;DHT22;43673;51.058;3.734;2023-03-03T09:36:34;4.70;99.90
57843;DHT22;43673;51.058;3.734;2023-03-03T09:39:21;4.70;99.90
57843;DHT22;43673;51.058;3.734;2023-03-03T09:44:37;4.70;99.90
57843;DHT22;43673;51.058;3.734;2023-03-03T09:50:06;4.60;99.90
57843;DHT22;43673;51.058;3.734;2023-03-03T09:55:49;4.80;99.90
57843;DHT22;43673;51.058;3.734;2023-03-03T09:58:31;4.90;99.90
57843;DHT22;43673;51.058;3.734;2023-03-03T10:13:02;5.30;99.90
57843;DHT22;43673;51.058;3.734;2023-03-03T10:15:15;5.40;99.90
57843;DHT22;43673;51.058;3.734;2023-03-03T10:17:51;5.40;99.90
57843;DHT22;43673;51.058;3.734;2023-03-03T10:25:52;5.00;99.90
57843;DHT22;43673;51.058;3.734;2023-03-03T10:31:48;4.90;99.90
57843;DHT22;43673;51.058;3.734;2023-03-03T10:37:27;5.10;99.90
57843;DHT22;43673;51.058;3.734;2023-03-03T11:02:17;6.20;99.90
57843;DHT22;43673;51.058;3.734;2023-03-03T11:04:52;6.00;99.90
57843;DHT22;43673;51.058;3.734;2023-03-03T11:10:26;5.90;99.90
57843;DHT22;43673;51.058;3.734;2023-03-03T11:13:25;5.70;99.90
57843;DHT22;43673;51.058;3.734;2023-03-03T11:16:14;5.60;99.90
57843;DHT22;43673;51.058;3.734;2023-03-03T11:30:02;6.00;99.90
57843;DHT22;43673;51.058;3.734;2023-03-03T11:32:41;6.00;99.90
57843;DHT22;43673;51.058;3.734;2023-03-03T11:35:28;6.00;99.90
57843;DHT22;43673;51.058;3.734;2023-03-03T11:40:55;6.30;99.90
57843;DHT22;43673;51.058;3.734;2023-03-03T11:43:35;6.40;99.90
57843;DHT22;43673;51.058;3.734;2023-03-03T11:46:09;6.30;99.90
57843;DHT22;43673;51.058;3.734;2023-03-03T11:48:59;6.30;99.90
57843;DHT22;43673;51.058;3.734;2023-03-03T11:51:44;6.30;99.90
57843;DHT22;43673;51.058;3.734;2023-03-03T12:08:43;8.10;99.90
57843;DHT22;43673;51.058;3.734;2023-03-03T12:38:03;6.80;99.90
57843;DHT22;43673;51.058;3.734;2023-03-03T12:40:37;7.00;99.90
57843;DHT22;43673;51.058;3.734;2023-03-03T12:43:39;7.30;99.90
57843;DHT22;43673;51.058;3.734;2023-03-03T12:48:44;7.30;99.90
57843;DHT22;43673;51.058;3.734;2023-03-03T13:16:27;7.40;99.90
57843;DHT22;43673;51.058;3.734;2023-03-03T13:19:00;7.40;99.90
57843;DHT22;43673;51.058;3.734;2023-03-03T13:21:46;7.50;99.90
57843;DHT22;43673;51.058;3.734;2023-03-03T13:27:13;7.80;99.90
57843;DHT22;43673;51.058;3.734;2023-03-03T13:29:43;7.90;99.90
57843;DHT22;43673;51.058;3.734;2023-03-03T13:32:22;8.00;99.90
57843;DHT22;43673;51.058;3.734;2023-03-03T13:35:07;8.20;99.90
57843;DHT22;43673;51.058;3.734;2023-03-03T13:45:36;8.50;99.90
57843;DHT22;43673;51.058;3.734;2023-03-03T13:51:13;8.30;99.90
57843;DHT22;43673;51.058;3.734;2023-03-03T13:53:55;8.30;99.90
57843;DHT22;43673;51.058;3.734;2023-03-03T14:07:26;9.10;99.90
57843;DHT22;43673;51.058;3.734;2023-03-03T14:15:33;8.80;99.90
57843;DHT22;43673;51.058;3.734;2023-03-03T14:21:19;8.60;99.90
57843;DHT22;43673;51.058;3.734;2023-03-03T14:26:25;8.40;99.90
57843;DHT22;43673;51.058;3.734;2023-03-03T14:28:51;8.50;99.90
57843;DHT22;43673;51.058;3.734;2023-03-03T14:31:51;8.60;99.90
57843;DHT22;43673;51.058;3.734;2023-03-03T14:36:50;8.40;99.90
57843;DHT22;43673;51.058;3.734;2023-03-03T14:39:38;8.40;99.90
57843;DHT22;43673;51.058;3.734;2023-03-03T14:42:34;8.50;99.90
57843;DHT22;43673;51.058;3.734;2023-03-03T14:45:21;8.60;99.90
57843;DHT22;43673;51.058;3.734;2023-03-03T14:47:48;8.70;99.90
57843;DHT22;43673;51.058;3.734;2023-03-03T14:50:38;8.80;99.90
57843;DHT22;43673;51.058;3.734;2023-03-03T14:53:20;8.90;99.90
57843;DHT22;43673;51.058;3.734;2023-03-03T14:55:48;8.80;99.90
57843;DHT22;43673;51.058;3.734;2023-03-03T14:58:35;8.70;99.90
57843;DHT22;43673;51.058;3.734;2023-03-03T15:01:20;8.70;99.90
57843;DHT22;43673;51.058;3.734;2023-03-03T15:03:59;8.80;99.90
57843;DHT22;43673;51.058;3.734;2023-03-03T15:06:43;8.90;99.90
57843;DHT22;43673;51.058;3.734;2023-03-03T15:09:30;8.90;99.90
57843;DHT22;43673;51.058;3.734;2023-03-03T15:15:01;8.40;99.90
57843;DHT22;43673;51.058;3.734;2023-03-03T15:17:44;8.30;99.90
57843;DHT22;43673;51.058;3.734;2023-03-03T15:20:41;8.30;99.90
57843;DHT22;43673;51.058;3.734;2023-03-03T15:26:05;8.30;99.90
57843;DHT22;43673;51.058;3.734;2023-03-03T15:28:44;8.30;99.90
57843;DHT22;43673;51.058;3.734;2023-03-03T15:31:27;8.40;99.90
57843;DHT22;43673;51.058;3.734;2023-03-03T15:39:16;8.40;99.90
57843;DHT22;43673;51.058;3.734;2023-03-03T15:42:17;8.40;99.90
57843;DHT22;43673;51.058;3.734;2023-03-03T15:45:05;8.40;99.90
57843;DHT22;43673;51.058;3.734;2023-03-03T15:50:30;8.30;99.90
57843;DHT22;43673;51.058;3.734;2023-03-03T15:56:02;8.30;99.90
57843;DHT22;43673;51.058;3.734;2023-03-03T15:58:59;8.30;99.90
57843;DHT22;43673;51.058;3.734;2023-03-03T16:04:33;8.40;99.90
57843;DHT22;43673;51.058;3.734;2023-03-03T16:09:54;8.40;99.90
57843;DHT22;43673;51.058;3.734;2023-03-03T16:12:50;8.60;99.90
57843;DHT22;43673;51.058;3.734;2023-03-03T16:23:46;8.60;99.90
57843;DHT22;43673;51.058;3.734;2023-03-03T16:31:22;8.40;99.90
57843;DHT22;43673;51.058;3.734;2023-03-03T16:36:53;8.40;99.90
57843;DHT22;43673;51.058;3.734;2023-03-03T16:39:41;8.40;99.90
57843;DHT22;43673;51.058;3.734;2023-03-03T16:42:29;8.40;99.90
57843;DHT22;43673;51.058;3.734;2023-03-03T16:50:34;8.60;99.90
57843;DHT22;43673;51.058;3.734;2023-03-03T16:55:56;8.60;99.90
57843;DHT22;43673;51.058;3.734;2023-03-03T17:01:35;8.60;99.90
57843;DHT22;43673;51.058;3.734;2023-03-03T17:04:01;8.60;99.90
57843;DHT22;43673;51.058;3.734;2023-03-03T17:06:40;8.60;99.90
57843;DHT22;43673;51.058;3.734;2023-03-03T17:12:30;8.70;99.90
57843;DHT22;43673;51.058;3.734;2023-03-03T17:20:46;8.60;99.90
57843;DHT22;43673;51.058;3.734;2023-03-03T17:31:44;8.50;99.90
57843;DHT22;43673;51.058;3.734;2023-03-03T17:43:56;8.60;99.90
57843;DHT22;43673;51.058;3.734;2023-03-03T17:57:56;8.40;99.90
57843;DHT22;43673;51.058;3.734;2023-03-03T18:08:30;8.40;99.90
57843;DHT22;43673;51.058;3.734;2023-03-03T18:22:28;8.20;99.90
57843;DHT22;43673;51.058;3.734;2023-03-03T18:25:17;8.20;99.90
57843;DHT22;43673;51.058;3.734;2023-03-03T18:27:47;8.10;99.90
57843;DHT22;43673;51.058;3.734;2023-03-03T18:31:14;8.10;99.90
57843;DHT22;43673;51.058;3.734;2023-03-03T18:38:59;8.10;99.90
57843;DHT22;43673;51.058;3.734;2023-03-03T18:41:30;8.10;99.90
57843;DHT22;43673;51.058;3.734;2023-03-03T18:44:24;8.20;99.90
57843;DHT22;43673;51.058;3.734;2023-03-03T18:46:52;8.20;99.90
57843;DHT22;43673;51.058;3.734;2023-03-03T18:49:48;8.20;99.90
57843;DHT22;43673;51.058;3.734;2023-03-03T18:52:29;8.10;99.90
57843;DHT22;43673;51.058;3.734;2023-03-03T18:57:37;8.10;99.90
57843;DHT22;43673;51.058;3.734;2023-03-03T19:00:24;8.00;99.90
57843;DHT22;43673;51.058;3.734;2023-03-03T19:02:54;7.90;99.90
57843;DHT22;43673;51.058;3.734;2023-03-03T19:08:03;7.80;99.90
57843;DHT22;43673;51.058;3.734;2023-03-03T19:13:38;7.80;99.90
57843;DHT22;43673;51.058;3.734;2023-03-03T19:16:29;7.80;99.90
57843;DHT22;43673;51.058;3.734;2023-03-03T19:21:35;7.80;99.90
57843;DHT22;43673;51.058;3.734;2023-03-03T19:27:00;7.80;99.90
57843;DHT22;43673;51.058;3.734;2023-03-03T19:30:02;7.70;99.90
57843;DHT22;43673;51.058;3.734;2023-03-03T19:41:15;7.70;99.90
57843;DHT22;43673;51.058;3.734;2023-03-03T19:44:16;7.70;99.90
57843;DHT22;43673;51.058;3.734;2023-03-03T19:52:28;7.60;99.90
57843;DHT22;43673;51.058;3.734;2023-03-03T19:55:17;7.60;99.90
57843;DHT22;43673;51.058;3.734;2023-03-03T20:05:43;7.40;99.90
57843;DHT22;43673;51.058;3.734;2023-03-03T20:24:48;7.40;99.90
57843;DHT22;43673;51.058;3.734;2023-03-03T20:27:23;7.40;99.90
57843;DHT22;43673;51.058;3.734;2023-03-03T20:40:34;7.50;99.90
57843;DHT22;43673;51.058;3.734;2023-03-03T20:43:15;7.50;99.90
57843;DHT22;43673;51.058;3.734;2023-03-03T20:45:52;7.50;99.90
57843;DHT22;43673;51.058;3.734;2023-03-03T20:48:24;7.50;99.90
57843;DHT22;43673;51.058;3.734;2023-03-03T20:51:13;7.60;99.90
57843;DHT22;43673;51.058;3.734;2023-03-03T20:54:11;7.50;99.90
57843;DHT22;43673;51.058;3.734;2023-03-03T21:05:12;7.50;99.90
57843;DHT22;43673;51.058;3.734;2023-03-03T21:07:53;7.50;99.90
57843;DHT22;43673;51.058;3.734;2023-03-03T21:10:26;7.50;99.90
57843;DHT22;43673;51.058;3.734;2023-03-03T21:12:57;7.50;99.90
57843;DHT22;43673;51.058;3.734;2023-03-03T21:15:31;7.40;99.90
57843;DHT22;43673;51.058;3.734;2023-03-03T21:17:59;7.40;99.90
57843;DHT22;43673;51.058;3.734;2023-03-03T21:20:33;7.50;99.90
57843;DHT22;43673;51.058;3.734;2023-03-03T21:23:01;7.50;99.90
57843;DHT22;43673;51.058;3.734;2023-03-03T21:33:45;7.40;99.90
57843;DHT22;43673;51.058;3.734;2023-03-03T21:36:19;7.30;99.90
57843;DHT22;43673;51.058;3.734;2023-03-03T21:38:45;7.40;99.90
57843;DHT22;43673;51.058;3.734;2023-03-03T21:41:15;7.40;99.90
57843;DHT22;43673;51.058;3.734;2023-03-03T21:43:47;7.40;99.90
57843;DHT22;43673;51.058;3.734;2023-03-03T21:46:20;7.40;99.90
57843;DHT22;43673;51.058;3.734;2023-03-03T21:48:50;7.40;99.90
57843;DHT22;43673;51.058;3.734;2023-03-03T21:51:16;7.40;99.90
57843;DHT22;43673;51.058;3.734;2023-03-03T21:53:43;7.40;99.90
57843;DHT22;43673;51.058;3.734;2023-03-03T21:56:10;7.40;99.90
57843;DHT22;43673;51.058;3.734;2023-03-03T21:58:40;7.40;99.90
57843;DHT22;43673;51.058;3.734;2023-03-03T22:01:07;7.40;99.90
57843;DHT22;43673;51.058;3.734;2023-03-03T22:03:34;7.50;99.90
57843;DHT22;43673;51.058;3.734;2023-03-03T22:06:01;7.50;99.90
57843;DHT22;43673;51.058;3.734;2023-03-03T22:08:27;7.60;99.90
57843;DHT22;43673;51.058;3.734;2023-03-03T22:10:53;7.60;99.90
57843;DHT22;43673;51.058;3.734;2023-03-03T22:13:26;7.60;99.90
57843;DHT22;43673;51.058;3.734;2023-03-03T22:15:52;7.70;99.90
57843;DHT22;43673;51.058;3.734;2023-03-03T22:18:19;7.80;99.90
57843;DHT22;43673;51.058;3.734;2023-03-03T22:20:46;7.80;99.90
57843;DHT22;43673;51.058;3.734;2023-03-03T22:23:12;7.80;99.90
57843;DHT22;43673;51.058;3.734;2023-03-03T22:25:38;7.80;99.90
57843;DHT22;43673;51.058;3.734;2023-03-03T22:28:04;7.70;99.90
57843;DHT22;43673;51.058;3.734;2023-03-03T22:30:30;7.70;99.90
57843;DHT22;43673;51.058;3.734;2023-03-03T22:32:55;7.70;99.90
57843;DHT22;43673;51.058;3.734;2023-03-03T22:35:21;7.70;99.90
57843;DHT22;43673;51.058;3.734;2023-03-03T22:37:47;7.60;99.90
57843;DHT22;43673;51.058;3.734;2023-03-03T22:40:13;7.40;99.90
57843;DHT22;43673;51.058;3.734;2023-03-03T22:42:38;7.50;99.90
57843;DHT22;43673;51.058;3.734;2023-03-03T22:45:04;7.50;99.90
57843;DHT22;43673;51.058;3.734;2023-03-03T22:47:36;7.40;99.90
57843;DHT22;43673;51.058;3.734;2023-03-03T22:50:03;7.40;99.90
57843;DHT22;43673;51.058;3.734;2023-03-03T22:52:29;7.40;99.90
57843;DHT22;43673;51.058;3.734;2023-03-03T22:54:54;7.40;99.90
57843;DHT22;43673;51.058;3.734;2023-03-03T22:57:22;7.40;99.90
57843;DHT22;43673;51.058;3.734;2023-03-03T22:59:48;7.40;99.90
57843;DHT22;43673;51.058;3.734;2023-03-03T23:02:14;7.40;99.90
57843;DHT22;43673;51.058;3.734;2023-03-03T23:04:39;7.50;99.90